Time;durP1;ratioP1;P1;durP2;ratioP2;P2;SDS_P1;SDS_P2;PMS_P1;PMS_P2;Temp;Humidity;BMP_temperature;BMP_pressure;BME280_temperature;BME280_humidity;BME280_pressure;Samples;Min_cycle;Max_cycle;Signal;HPM_P1;HPM_P2
2021/11/18 00:00:41;;;;;;;;;;;22.50;99.90;;;;;;5074654;28;19925;-71
2021/11/18 00:03:09;;;;;;;;;;;22.40;99.90;;;;;;5074710;28;19909;-72
2021/11/18 00:05:35;;;;;;;;;;;22.30;99.90;;;;;;5073840;28;19943;-69
2021/11/18 00:08:03;;;;;;;;;;;22.20;99.90;;;;;;5074303;28;19908;-73
2021/11/18 00:10:31;;;;;;;;;;;22.30;99.90;;;;;;5074391;28;20273;-69
2021/11/18 00:12:59;;;;;;;;;;;22.20;99.90;;;;;;5074410;28;19971;-70
2021/11/18 00:15:26;;;;;;;;;;;22.40;99.90;;;;;;5074232;28;20278;-71
2021/11/18 00:18:01;;;;;;;;;;;22.30;99.90;;;;;;5073894;28;20274;-68
2021/11/18 00:20:29;;;;;;;;;;;22.30;99.90;;;;;;5074328;28;20384;-72
2021/11/18 00:22:56;;;;;;;;;;;22.40;99.90;;;;;;5074162;28;20002;-72
2021/11/18 00:25:24;;;;;;;;;;;22.50;99.90;;;;;;5074157;28;19916;-70
2021/11/18 00:27:50;;;;;;;;;;;22.60;99.90;;;;;;5073531;28;20009;-71
2021/11/18 00:30:17;;;;;;;;;;;22.60;99.90;;;;;;5074072;28;19924;-71
2021/11/18 00:32:44;;;;;;;;;;;22.90;99.90;;;;;;5073692;28;19909;-66
2021/11/18 00:35:15;;;;;;;;;;;23.00;99.90;;;;;;5073848;28;19928;-72
2021/11/18 00:37:42;;;;;;;;;;;23.60;99.70;;;;;;5073848;28;19965;-68
2021/11/18 00:40:09;;;;;;;;;;;24.00;98.60;;;;;;5073401;28;19957;-67
2021/11/18 00:42:36;;;;;;;;;;;24.20;98.30;;;;;;5073853;28;20387;-67
2021/11/18 00:45:03;;;;;;;;;;;24.50;97.70;;;;;;5073780;28;19995;-68
2021/11/18 00:47:30;;;;;;;;;;;24.50;97.80;;;;;;5073676;28;19909;-67
2021/11/18 00:49:56;;;;;;;;;;;24.60;97.50;;;;;;5073176;28;19971;-69
2021/11/18 00:52:23;;;;;;;;;;;24.50;98.00;;;;;;5073678;28;19916;-68
2021/11/18 00:54:50;;;;;;;;;;;24.60;98.20;;;;;;5073717;28;20007;-72
2021/11/18 00:57:17;;;;;;;;;;;24.70;97.80;;;;;;5073618;28;20350;-68
2021/11/18 00:59:46;;;;;;;;;;;24.60;98.00;;;;;;5073196;28;19921;-69
2021/11/18 01:02:16;;;;;;;;;;;24.50;98.30;;;;;;5073374;28;19997;-70
2021/11/18 01:04:45;;;;;;;;;;;24.90;97.90;;;;;;5073629;28;20309;-67
2021/11/18 01:07:11;;;;;;;;;;;24.80;97.70;;;;;;5073245;28;20062;-67
2021/11/18 01:09:38;;;;;;;;;;;24.70;98.20;;;;;;5072821;28;19912;-67
2021/11/18 01:12:09;;;;;;;;;;;24.70;98.20;;;;;;5072285;28;20194;-68
2021/11/18 01:14:36;;;;;;;;;;;25.00;98.00;;;;;;5073305;28;19908;-68
2021/11/18 01:17:03;;;;;;;;;;;25.20;97.50;;;;;;5072520;28;20011;-68
2021/11/18 01:19:31;;;;;;;;;;;25.20;98.10;;;;;;5073249;28;19991;-67
2021/11/18 01:21:59;;;;;;;;;;;25.00;98.10;;;;;;5072990;28;20003;-68
2021/11/18 01:24:25;;;;;;;;;;;24.90;98.10;;;;;;5073212;28;19936;-67
2021/11/18 01:26:52;;;;;;;;;;;24.90;97.80;;;;;;5072992;28;19962;-67
2021/11/18 01:29:19;;;;;;;;;;;24.40;98.40;;;;;;5072827;28;20335;-67
2021/11/18 01:31:46;;;;;;;;;;;24.60;98.30;;;;;;5072886;28;19908;-70
2021/11/18 01:34:12;;;;;;;;;;;24.40;99.00;;;;;;5072660;28;19909;-67
2021/11/18 01:36:41;;;;;;;;;;;24.10;99.10;;;;;;5072708;28;19916;-67
2021/11/18 01:39:08;;;;;;;;;;;23.80;99.80;;;;;;5072903;28;19912;-67
2021/11/18 01:41:36;;;;;;;;;;;23.50;99.90;;;;;;5072717;28;20425;-69
2021/11/18 01:44:05;;;;;;;;;;;23.30;99.90;;;;;;5072484;28;20358;-67
2021/11/18 01:46:33;;;;;;;;;;;23.00;99.90;;;;;;5072641;28;19912;-67
2021/11/18 01:49:01;;;;;;;;;;;23.10;99.90;;;;;;5072457;28;19912;-69
2021/11/18 01:51:30;;;;;;;;;;;23.00;99.90;;;;;;5072517;28;19920;-67
2021/11/18 01:53:57;;;;;;;;;;;23.30;99.90;;;;;;5072478;28;19915;-70
2021/11/18 01:56:28;;;;;;;;;;;23.30;99.70;;;;;;5072413;28;19987;-71
2021/11/18 01:58:57;;;;;;;;;;;23.40;99.70;;;;;;5072336;28;19912;-71
2021/11/18 02:01:24;;;;;;;;;;;23.40;99.80;;;;;;5072292;28;20324;-69
2021/11/18 02:03:51;;;;;;;;;;;23.40;99.70;;;;;;5071943;28;19939;-70
2021/11/18 02:06:30;;;;;;;;;;;23.40;99.80;;;;;;5072431;28;19915;-71
2021/11/18 02:08:57;;;;;;;;;;;23.30;99.40;;;;;;5072367;28;19926;-71
2021/11/18 02:11:36;;;;;;;;;;;23.10;99.90;;;;;;5072245;28;19912;-72
2021/11/18 02:14:04;;;;;;;;;;;23.20;99.40;;;;;;5072221;28;19908;-73
2021/11/18 02:16:31;;;;;;;;;;;23.20;99.60;;;;;;5072143;28;19912;-72
2021/11/18 02:18:57;;;;;;;;;;;23.40;99.40;;;;;;5072272;28;19935;-71
2021/11/18 02:21:24;;;;;;;;;;;23.30;99.30;;;;;;5072279;28;19908;-69
2021/11/18 02:23:51;;;;;;;;;;;23.30;99.70;;;;;;5071856;28;20347;-68
2021/11/18 02:26:19;;;;;;;;;;;23.10;99.30;;;;;;5072258;28;20370;-70
2021/11/18 02:28:46;;;;;;;;;;;22.90;99.90;;;;;;5074769;28;19909;-69
2021/11/18 02:31:16;;;;;;;;;;;23.00;99.90;;;;;;5076102;28;19916;-69
2021/11/18 02:33:42;;;;;;;;;;;23.20;99.90;;;;;;5076094;28;19908;-69
2021/11/18 02:36:09;;;;;;;;;;;23.00;99.90;;;;;;5076202;28;19920;-68
2021/11/18 02:38:36;;;;;;;;;;;22.90;99.90;;;;;;5076059;28;19909;-68
2021/11/18 02:41:02;;;;;;;;;;;23.10;99.90;;;;;;5075935;28;19908;-68
2021/11/18 02:43:29;;;;;;;;;;;23.20;99.90;;;;;;5076102;28;19912;-67
2021/11/18 02:45:56;;;;;;;;;;;23.00;99.90;;;;;;5075705;28;19960;-68
2021/11/18 02:48:22;;;;;;;;;;;23.00;99.90;;;;;;5076009;28;19947;-68
2021/11/18 02:50:54;;;;;;;;;;;23.00;99.90;;;;;;5075872;28;20432;-71
2021/11/18 02:53:21;;;;;;;;;;;22.90;99.90;;;;;;5074528;28;19912;-68
2021/11/18 02:55:49;;;;;;;;;;;22.90;99.90;;;;;;5075700;28;19909;-68
2021/11/18 02:58:16;;;;;;;;;;;22.90;99.90;;;;;;5075910;28;20003;-69
2021/11/18 03:00:46;;;;;;;;;;;22.90;99.90;;;;;;5075813;28;19920;-72
2021/11/18 03:03:13;;;;;;;;;;;23.00;99.90;;;;;;5075593;28;19908;-69
2021/11/18 03:05:39;;;;;;;;;;;22.90;99.90;;;;;;5075433;28;19955;-68
2021/11/18 03:08:06;;;;;;;;;;;22.80;99.90;;;;;;5075279;28;20013;-67
2021/11/18 03:10:33;;;;;;;;;;;22.90;99.90;;;;;;5075320;28;19970;-68
2021/11/18 03:13:00;;;;;;;;;;;22.90;99.90;;;;;;5075492;28;20000;-67
2021/11/18 03:15:27;;;;;;;;;;;22.80;99.90;;;;;;5075465;28;19909;-67
2021/11/18 03:17:54;;;;;;;;;;;22.80;99.90;;;;;;5075059;28;19939;-68
2021/11/18 03:20:21;;;;;;;;;;;22.80;99.90;;;;;;5075269;28;19962;-67
2021/11/18 03:22:48;;;;;;;;;;;22.80;99.90;;;;;;5075164;28;20359;-67
2021/11/18 03:25:16;;;;;;;;;;;22.90;99.90;;;;;;5075305;28;19912;-67
2021/11/18 03:27:43;;;;;;;;;;;22.90;99.90;;;;;;5075254;28;19916;-67
2021/11/18 03:30:11;;;;;;;;;;;22.90;99.90;;;;;;5075010;28;19979;-69
2021/11/18 03:32:38;;;;;;;;;;;22.80;99.90;;;;;;5075155;28;19971;-67
2021/11/18 03:35:05;;;;;;;;;;;22.80;99.90;;;;;;5074729;28;19909;-66
2021/11/18 03:37:32;;;;;;;;;;;22.70;99.90;;;;;;5074667;28;19920;-66
2021/11/18 03:39:59;;;;;;;;;;;22.60;99.90;;;;;;5073482;28;19915;-66
2021/11/18 03:42:25;;;;;;;;;;;22.70;99.90;;;;;;5074969;28;19987;-67
2021/11/18 03:44:52;;;;;;;;;;;22.70;99.90;;;;;;5075059;28;19940;-66
2021/11/18 03:47:19;;;;;;;;;;;22.80;99.90;;;;;;5075098;28;19909;-66
2021/11/18 03:49:45;;;;;;;;;;;22.80;99.90;;;;;;5074659;28;20290;-67
2021/11/18 03:52:14;;;;;;;;;;;22.70;99.90;;;;;;5074800;28;20353;-66
2021/11/18 03:54:41;;;;;;;;;;;22.50;99.90;;;;;;5090312;28;19908;-67
2021/11/18 03:57:08;;;;;;;;;;;22.60;99.90;;;;;;5074953;28;19987;-67
2021/11/18 03:59:36;;;;;;;;;;;22.70;99.90;;;;;;5074270;28;20380;-66
2021/11/18 04:02:03;;;;;;;;;;;22.80;99.90;;;;;;5074044;28;19917;-66
2021/11/18 04:04:33;;;;;;;;;;;22.90;99.90;;;;;;5074193;28;19912;-67
2021/11/18 04:07:00;;;;;;;;;;;22.70;99.90;;;;;;5074443;28;19916;-66
2021/11/18 04:09:28;;;;;;;;;;;22.70;99.90;;;;;;5074709;28;19999;-66
2021/11/18 04:11:59;;;;;;;;;;;22.50;99.90;;;;;;5074614;28;20012;-67
2021/11/18 04:14:27;;;;;;;;;;;22.40;99.90;;;;;;5074864;28;20418;-67
2021/11/18 04:16:54;;;;;;;;;;;22.50;99.90;;;;;;5077557;28;19915;-67
2021/11/18 04:19:20;;;;;;;;;;;22.60;99.90;;;;;;5076570;28;19913;-67
2021/11/18 04:21:47;;;;;;;;;;;22.60;99.90;;;;;;5074140;28;20011;-68
2021/11/18 04:24:24;;;;;;;;;;;22.40;99.90;;;;;;5074277;28;19909;-67
2021/11/18 04:26:51;;;;;;;;;;;22.60;99.90;;;;;;5074347;28;19961;-67
2021/11/18 04:29:27;;;;;;;;;;;22.60;99.90;;;;;;5074432;28;20270;-67
2021/11/18 04:32:02;;;;;;;;;;;22.60;99.90;;;;;;5072482;28;19919;-67
2021/11/18 04:34:29;;;;;;;;;;;22.70;99.90;;;;;;5074162;28;20250;-67
2021/11/18 04:36:56;;;;;;;;;;;22.70;99.90;;;;;;5072911;28;19995;-67
2021/11/18 04:39:23;;;;;;;;;;;22.90;99.90;;;;;;5074141;28;19932;-66
2021/11/18 04:41:51;;;;;;;;;;;22.70;99.90;;;;;;5073816;28;19913;-68
2021/11/18 04:44:19;;;;;;;;;;;22.70;99.90;;;;;;5073942;28;19964;-67
2021/11/18 04:46:46;;;;;;;;;;;22.60;99.90;;;;;;5073843;28;20270;-69
2021/11/18 04:49:13;;;;;;;;;;;22.60;99.90;;;;;;5073449;28;19908;-67
2021/11/18 04:51:39;;;;;;;;;;;22.70;99.90;;;;;;5073775;28;20007;-70
2021/11/18 04:54:06;;;;;;;;;;;22.60;99.90;;;;;;5074180;28;20003;-71
2021/11/18 04:56:33;;;;;;;;;;;22.60;99.90;;;;;;5073764;28;19939;-67
2021/11/18 04:59:00;;;;;;;;;;;22.50;99.90;;;;;;5088905;28;20346;-69
2021/11/18 05:01:27;;;;;;;;;;;22.50;99.90;;;;;;5073791;28;19938;-68
2021/11/18 05:03:54;;;;;;;;;;;22.60;99.90;;;;;;5073458;28;20400;-68
2021/11/18 05:06:21;;;;;;;;;;;22.40;99.90;;;;;;5074002;28;19975;-68
2021/11/18 05:08:49;;;;;;;;;;;22.60;99.90;;;;;;5073772;28;20344;-67
2021/11/18 05:11:16;;;;;;;;;;;22.60;99.90;;;;;;5073305;28;19923;-73
2021/11/18 05:13:43;;;;;;;;;;;22.30;99.90;;;;;;5089415;28;19909;-69
2021/11/18 05:16:11;;;;;;;;;;;22.40;99.90;;;;;;5074017;28;20007;-68
2021/11/18 05:18:38;;;;;;;;;;;22.50;99.90;;;;;;5079917;28;20347;-71
2021/11/18 05:21:05;;;;;;;;;;;22.40;99.90;;;;;;5073531;28;20002;-71
2021/11/18 05:23:32;;;;;;;;;;;22.40;99.90;;;;;;5073531;28;20739;-72
2021/11/18 05:25:59;;;;;;;;;;;22.40;99.90;;;;;;5073017;28;20607;-70
2021/11/18 05:28:26;;;;;;;;;;;22.30;99.90;;;;;;5073575;28;19934;-71
2021/11/18 05:30:53;;;;;;;;;;;22.10;99.90;;;;;;5073073;28;19924;-72
2021/11/18 05:33:21;;;;;;;;;;;22.20;99.90;;;;;;5073284;28;19919;-73
2021/11/18 05:35:48;;;;;;;;;;;22.20;99.90;;;;;;5072651;28;19916;-72
2021/11/18 05:38:15;;;;;;;;;;;22.30;99.90;;;;;;5073289;28;19908;-71
2021/11/18 05:40:44;;;;;;;;;;;22.30;99.90;;;;;;5073052;28;19915;-72
2021/11/18 05:43:11;;;;;;;;;;;22.30;99.90;;;;;;5072948;28;20302;-70
2021/11/18 05:45:38;;;;;;;;;;;22.30;99.90;;;;;;5073064;28;19908;-72
2021/11/18 05:48:06;;;;;;;;;;;22.20;99.90;;;;;;5072476;28;19955;-72
2021/11/18 05:50:33;;;;;;;;;;;22.10;99.90;;;;;;5072354;28;20290;-73
2021/11/18 05:53:00;;;;;;;;;;;22.00;99.90;;;;;;5070003;28;20325;-72
2021/11/18 05:55:28;;;;;;;;;;;22.10;99.90;;;;;;5070625;28;20370;-72
2021/11/18 05:57:55;;;;;;;;;;;22.10;99.90;;;;;;5070513;28;19956;-72
2021/11/18 06:00:25;;;;;;;;;;;22.10;99.90;;;;;;5070601;28;20501;-71
2021/11/18 06:02:52;;;;;;;;;;;22.00;99.90;;;;;;5070178;28;20063;-72
2021/11/18 06:05:19;;;;;;;;;;;21.90;99.90;;;;;;5070224;28;20108;-73
2021/11/18 06:07:46;;;;;;;;;;;21.90;99.90;;;;;;5070659;28;19912;-72
2021/11/18 06:10:14;;;;;;;;;;;21.90;99.90;;;;;;5070494;28;19920;-72
2021/11/18 06:12:41;;;;;;;;;;;22.00;99.90;;;;;;5070604;28;20003;-71
2021/11/18 06:15:09;;;;;;;;;;;22.00;99.90;;;;;;5069197;28;19918;-73
2021/11/18 06:17:36;;;;;;;;;;;22.00;99.90;;;;;;5069941;28;20077;-70
2021/11/18 06:20:03;;;;;;;;;;;22.00;99.90;;;;;;5069911;28;20381;-70
2021/11/18 06:22:30;;;;;;;;;;;22.00;99.90;;;;;;5070355;28;20311;-71
2021/11/18 06:24:57;;;;;;;;;;;21.70;99.90;;;;;;5070340;28;20019;-72
2021/11/18 06:27:24;;;;;;;;;;;21.70;99.90;;;;;;5070505;28;19909;-72
2021/11/18 06:29:51;;;;;;;;;;;21.60;99.90;;;;;;5072836;28;19978;-67
2021/11/18 06:32:17;;;;;;;;;;;21.60;99.90;;;;;;5073150;28;19970;-69
2021/11/18 06:34:44;;;;;;;;;;;21.60;99.90;;;;;;5070141;28;19920;-71
2021/11/18 06:37:11;;;;;;;;;;;21.50;99.90;;;;;;5070057;28;19913;-71
2021/11/18 06:39:39;;;;;;;;;;;21.50;99.90;;;;;;5070346;28;20497;-74
2021/11/18 06:42:06;;;;;;;;;;;21.50;99.90;;;;;;5069966;28;19912;-72
2021/11/18 06:44:33;;;;;;;;;;;21.40;99.90;;;;;;5069508;28;19916;-71
2021/11/18 06:47:00;;;;;;;;;;;21.40;99.90;;;;;;5069851;28;19954;-71
2021/11/18 06:49:27;;;;;;;;;;;21.40;99.90;;;;;;5069654;28;19913;-70
2021/11/18 06:51:54;;;;;;;;;;;21.30;99.90;;;;;;5069853;28;19912;-72
2021/11/18 06:54:21;;;;;;;;;;;21.30;99.90;;;;;;5069749;28;19916;-72
2021/11/18 06:56:48;;;;;;;;;;;21.20;99.90;;;;;;5069691;28;20206;-68
2021/11/18 06:59:15;;;;;;;;;;;21.20;99.90;;;;;;5069753;28;19925;-72
2021/11/18 07:01:42;;;;;;;;;;;21.20;99.90;;;;;;5069793;28;20003;-70
2021/11/18 07:04:10;;;;;;;;;;;21.10;99.90;;;;;;5069375;28;19913;-72
2021/11/18 07:06:37;;;;;;;;;;;21.00;99.90;;;;;;5069569;28;19912;-67
2021/11/18 07:09:07;;;;;;;;;;;21.10;99.90;;;;;;5069360;28;19954;-70
2021/11/18 07:11:35;;;;;;;;;;;21.10;99.90;;;;;;5069403;28;19919;-71
2021/11/18 07:14:02;;;;;;;;;;;21.00;99.90;;;;;;5069416;28;19962;-69
2021/11/18 07:16:28;;;;;;;;;;;21.00;99.90;;;;;;5073663;28;19908;-71
2021/11/18 07:18:56;;;;;;;;;;;20.90;99.90;;;;;;5073864;28;20365;-71
2021/11/18 07:21:29;;;;;;;;;;;20.90;99.90;;;;;;5072298;28;20011;-72
2021/11/18 07:23:57;;;;;;;;;;;20.90;99.90;;;;;;5072734;28;19909;-71
2021/11/18 07:26:23;;;;;;;;;;;20.80;99.90;;;;;;5073132;28;19916;-71
2021/11/18 07:28:50;;;;;;;;;;;20.80;99.90;;;;;;5073128;28;19909;-72
2021/11/18 07:31:17;;;;;;;;;;;20.70;99.90;;;;;;5073067;28;19920;-72
2021/11/18 07:33:44;;;;;;;;;;;20.80;99.90;;;;;;5072677;28;19913;-73
2021/11/18 07:36:10;;;;;;;;;;;20.70;99.90;;;;;;5072468;28;19908;-72
2021/11/18 07:38:37;;;;;;;;;;;20.70;99.90;;;;;;5069351;28;19916;-72
2021/11/18 07:41:06;;;;;;;;;;;20.60;99.90;;;;;;5072788;28;19909;-71
2021/11/18 07:43:34;;;;;;;;;;;20.60;99.90;;;;;;5073277;28;20317;-72
2021/11/18 07:46:03;;;;;;;;;;;20.60;99.90;;;;;;5071797;28;19913;-72
2021/11/18 07:48:30;;;;;;;;;;;20.60;99.90;;;;;;5072429;28;19916;-72
2021/11/18 07:50:58;;;;;;;;;;;20.50;99.90;;;;;;5072194;28;20329;-71
2021/11/18 07:53:25;;;;;;;;;;;20.60;99.90;;;;;;5072580;28;19913;-70
2021/11/18 07:55:52;;;;;;;;;;;20.60;99.90;;;;;;5072601;28;19912;-72
2021/11/18 07:58:19;;;;;;;;;;;20.60;99.90;;;;;;5072474;28;19912;-72
2021/11/18 08:00:47;;;;;;;;;;;20.60;99.90;;;;;;5071758;28;19931;-72
2021/11/18 08:03:14;;;;;;;;;;;20.60;99.90;;;;;;5071995;28;19909;-72
2021/11/18 08:05:42;;;;;;;;;;;20.60;99.90;;;;;;5073174;28;19908;-71
2021/11/18 08:08:08;;;;;;;;;;;20.50;99.90;;;;;;5073985;28;19999;-67
2021/11/18 08:10:35;;;;;;;;;;;20.50;99.90;;;;;;5074439;28;19916;-72
2021/11/18 08:13:02;;;;;;;;;;;20.50;99.90;;;;;;5074462;28;19919;-71
2021/11/18 08:15:29;;;;;;;;;;;20.40;99.90;;;;;;5074320;28;19913;-71
2021/11/18 08:17:56;;;;;;;;;;;20.50;99.90;;;;;;5073961;28;20274;-72
2021/11/18 08:20:23;;;;;;;;;;;20.50;99.90;;;;;;5074159;28;20292;-71
2021/11/18 08:22:50;;;;;;;;;;;20.40;99.90;;;;;;5074129;28;19956;-68
2021/11/18 08:25:18;;;;;;;;;;;20.40;99.90;;;;;;5073702;28;20011;-70
2021/11/18 08:27:45;;;;;;;;;;;20.40;99.90;;;;;;5074179;28;19912;-71
2021/11/18 08:30:15;;;;;;;;;;;20.40;99.90;;;;;;5074019;28;19923;-69
2021/11/18 08:32:46;;;;;;;;;;;20.40;99.90;;;;;;5072631;28;19951;-70
2021/11/18 08:35:13;;;;;;;;;;;20.40;99.90;;;;;;5074110;28;19915;-70
2021/11/18 08:37:42;;;;;;;;;;;20.40;99.90;;;;;;5073896;28;19979;-70
2021/11/18 08:40:09;;;;;;;;;;;20.40;99.90;;;;;;5073854;28;20393;-71
2021/11/18 08:42:36;;;;;;;;;;;20.40;99.90;;;;;;5073943;28;19909;-69
2021/11/18 08:45:03;;;;;;;;;;;20.40;99.90;;;;;;5073715;28;19936;-71
2021/11/18 08:47:30;;;;;;;;;;;20.40;99.90;;;;;;5073691;28;19974;-71
2021/11/18 08:49:56;;;;;;;;;;;20.40;99.90;;;;;;5073456;28;19966;-68
2021/11/18 08:52:24;;;;;;;;;;;20.40;99.90;;;;;;5073615;28;19912;-70
2021/11/18 08:54:52;;;;;;;;;;;20.40;99.90;;;;;;5073414;28;19908;-69
2021/11/18 08:57:20;;;;;;;;;;;20.50;99.90;;;;;;5073671;28;20052;-67
2021/11/18 08:59:47;;;;;;;;;;;20.50;99.90;;;;;;5073368;28;19921;-66
2021/11/18 09:02:17;;;;;;;;;;;20.50;99.90;;;;;;5073324;28;20386;-71
2021/11/18 09:04:43;;;;;;;;;;;20.50;99.90;;;;;;5073440;28;20270;-67
2021/11/18 09:07:10;;;;;;;;;;;20.50;99.90;;;;;;5073198;28;19912;-69
2021/11/18 09:09:37;;;;;;;;;;;20.60;99.90;;;;;;5073308;28;19962;-71
2021/11/18 09:12:06;;;;;;;;;;;20.60;99.90;;;;;;5073063;28;19915;-71
2021/11/18 09:14:33;;;;;;;;;;;20.60;99.90;;;;;;5073070;28;19916;-70
2021/11/18 09:17:00;;;;;;;;;;;20.60;99.90;;;;;;5072968;28;20366;-72
2021/11/18 09:19:29;;;;;;;;;;;20.60;99.90;;;;;;5073142;28;20390;-69
2021/11/18 09:21:58;;;;;;;;;;;20.60;99.90;;;;;;5072825;28;19915;-67
2021/11/18 09:24:47;;;;;;;;;;;20.60;99.90;;;;;;5073012;28;19908;-69
2021/11/18 09:27:17;;;;;;;;;;;20.60;99.90;;;;;;5067522;28;20027;-70
2021/11/18 09:29:44;;;;;;;;;;;20.60;99.90;;;;;;5072859;28;20378;-70
2021/11/18 09:32:11;;;;;;;;;;;20.60;99.90;;;;;;5072780;28;19912;-71
2021/11/18 09:34:39;;;;;;;;;;;20.60;99.90;;;;;;5072951;28;19954;-71
2021/11/18 09:37:06;;;;;;;;;;;20.60;99.90;;;;;;5072157;28;19908;-68
2021/11/18 09:39:33;;;;;;;;;;;20.60;99.90;;;;;;5072831;28;19912;-67
2021/11/18 09:42:08;;;;;;;;;;;20.50;99.90;;;;;;5072464;28;19912;-67
2021/11/18 09:44:37;;;;;;;;;;;20.50;99.90;;;;;;5072841;28;19909;-68
2021/11/18 09:47:14;;;;;;;;;;;20.60;99.90;;;;;;5072495;28;19908;-71
2021/11/18 09:49:53;;;;;;;;;;;20.60;99.90;;;;;;5072738;28;19916;-67
2021/11/18 09:52:22;;;;;;;;;;;20.60;99.90;;;;;;5072595;28;19913;-70
2021/11/18 09:54:55;;;;;;;;;;;20.50;99.90;;;;;;5072575;28;20495;-71
2021/11/18 09:57:40;;;;;;;;;;;20.50;99.90;;;;;;5072488;28;19969;-72
2021/11/18 10:00:15;;;;;;;;;;;20.50;99.90;;;;;;5072229;28;19981;-71
2021/11/18 10:02:57;;;;;;;;;;;20.50;99.90;;;;;;5072385;28;19940;-70
2021/11/18 10:05:24;;;;;;;;;;;20.40;99.90;;;;;;5072374;28;20008;-71
2021/11/18 10:07:54;;;;;;;;;;;20.50;99.90;;;;;;5072197;28;19909;-71
2021/11/18 10:10:26;;;;;;;;;;;20.50;99.90;;;;;;5072347;28;19920;-67
2021/11/18 10:13:11;;;;;;;;;;;20.40;99.90;;;;;;5072375;28;19913;-71
2021/11/18 10:15:43;;;;;;;;;;;20.40;99.90;;;;;;5070949;28;19916;-71
2021/11/18 10:18:21;;;;;;;;;;;20.40;99.90;;;;;;5071810;28;19912;-73
2021/11/18 10:20:50;;;;;;;;;;;20.40;99.90;;;;;;5072314;28;19908;-72
2021/11/18 10:23:20;;;;;;;;;;;20.40;99.90;;;;;;5072170;28;20034;-71
2021/11/18 10:26:06;;;;;;;;;;;20.40;99.90;;;;;;5071242;28;19909;-70
2021/11/18 10:28:42;;;;;;;;;;;20.40;99.90;;;;;;5071884;28;19908;-71
2021/11/18 10:31:17;;;;;;;;;;;20.40;99.90;;;;;;5071878;28;19916;-71
2021/11/18 10:33:44;;;;;;;;;;;20.40;99.90;;;;;;5072222;28;19954;-70
2021/11/18 10:36:19;;;;;;;;;;;20.30;99.90;;;;;;5071778;28;20420;-73
2021/11/18 10:38:56;;;;;;;;;;;20.30;99.90;;;;;;5071716;28;20281;-69
2021/11/18 10:41:25;;;;;;;;;;;20.30;99.90;;;;;;5072001;28;19909;-72
2021/11/18 10:44:10;;;;;;;;;;;20.30;99.90;;;;;;5071956;28;19908;-69
2021/11/18 10:46:39;;;;;;;;;;;20.30;99.90;;;;;;5071935;28;19908;-70
2021/11/18 10:49:11;;;;;;;;;;;20.20;99.90;;;;;;5073831;28;19916;-72
2021/11/18 10:51:39;;;;;;;;;;;20.20;99.90;;;;;;5075917;28;19917;-70
2021/11/18 10:54:07;;;;;;;;;;;20.20;99.90;;;;;;5075203;28;20385;-71
2021/11/18 10:56:40;;;;;;;;;;;20.20;99.90;;;;;;5075802;28;19915;-69
2021/11/18 10:59:06;;;;;;;;;;;20.20;99.90;;;;;;5075719;28;19912;-68
2021/11/18 11:01:35;;;;;;;;;;;20.20;99.90;;;;;;5075746;28;19916;-71
2021/11/18 11:04:03;;;;;;;;;;;20.20;99.90;;;;;;5075416;28;20647;-72
2021/11/18 11:06:31;;;;;;;;;;;20.20;99.90;;;;;;5075613;28;19912;-70
2021/11/18 11:09:13;;;;;;;;;;;20.20;99.90;;;;;;5075049;28;19979;-73
2021/11/18 11:11:46;;;;;;;;;;;20.20;99.90;;;;;;5075456;28;19943;-69
2021/11/18 11:14:32;;;;;;;;;;;20.20;99.90;;;;;;5075691;28;20328;-73
2021/11/18 11:17:01;;;;;;;;;;;20.20;99.90;;;;;;5075385;28;20323;-71
2021/11/18 11:19:35;;;;;;;;;;;20.10;99.90;;;;;;5075377;28;19909;-73
2021/11/18 11:22:12;;;;;;;;;;;20.10;99.90;;;;;;5074844;28;19916;-71
2021/11/18 11:24:43;;;;;;;;;;;20.10;99.90;;;;;;5073465;28;19935;-69
2021/11/18 11:27:10;;;;;;;;;;;20.10;99.90;;;;;;5075187;28;19912;-72
2021/11/18 11:29:56;;;;;;;;;;;20.10;99.90;;;;;;5075133;28;19920;-71
2021/11/18 11:32:33;;;;;;;;;;;20.10;99.90;;;;;;5074677;28;19908;-71
2021/11/18 11:35:15;;;;;;;;;;;20.00;99.90;;;;;;5075156;28;19912;-73
2021/11/18 11:38:02;;;;;;;;;;;20.00;99.90;;;;;;5074829;28;19908;-73
2021/11/18 11:40:47;;;;;;;;;;;19.90;99.90;;;;;;5075106;28;19966;-69
2021/11/18 11:43:36;;;;;;;;;;;19.80;99.90;;;;;;5075203;28;19912;-72
2021/11/18 11:46:03;;;;;;;;;;;19.80;99.90;;;;;;5069174;28;20007;-73
2021/11/18 11:48:29;;;;;;;;;;;19.80;99.90;;;;;;5075089;28;20003;-70
2021/11/18 11:51:14;;;;;;;;;;;19.80;99.90;;;;;;5074917;28;20405;-71
2021/11/18 11:53:53;;;;;;;;;;;19.80;99.90;;;;;;5074356;28;19913;-74
2021/11/18 11:56:37;;;;;;;;;;;19.80;99.90;;;;;;5074978;28;19912;-74
2021/11/18 11:59:09;;;;;;;;;;;19.80;99.90;;;;;;5074655;28;20390;-74
2021/11/18 12:01:52;;;;;;;;;;;19.80;99.90;;;;;;5073778;28;19975;-74
2021/11/18 12:04:21;;;;;;;;;;;19.80;99.90;;;;;;5074954;28;19909;-72
2021/11/18 12:07:00;;;;;;;;;;;19.80;99.90;;;;;;5074531;28;19999;-73
2021/11/18 12:09:45;;;;;;;;;;;19.80;99.90;;;;;;5074441;28;19909;-74
2021/11/18 12:12:17;;;;;;;;;;;19.80;99.90;;;;;;5074493;28;19966;-72
2021/11/18 12:14:45;;;;;;;;;;;19.90;99.90;;;;;;5074353;28;19912;-71
2021/11/18 12:17:27;;;;;;;;;;;19.90;99.90;;;;;;5074280;28;19908;-72
2021/11/18 12:20:00;;;;;;;;;;;19.90;99.90;;;;;;5074244;28;19908;-73
2021/11/18 12:22:39;;;;;;;;;;;19.90;99.90;;;;;;5074048;28;20274;-73
2021/11/18 12:25:27;;;;;;;;;;;19.90;99.90;;;;;;5074214;28;19999;-73
2021/11/18 12:28:05;;;;;;;;;;;19.90;99.90;;;;;;5072892;28;19916;-73
2021/11/18 12:30:32;;;;;;;;;;;19.90;99.90;;;;;;5073935;28;20500;-72
2021/11/18 12:33:01;;;;;;;;;;;19.90;99.90;;;;;;5074036;28;19912;-72
2021/11/18 12:35:28;;;;;;;;;;;19.90;99.90;;;;;;5074207;28;19935;-70
2021/11/18 12:38:01;;;;;;;;;;;19.90;99.90;;;;;;5073897;28;19908;-74
2021/11/18 12:40:36;;;;;;;;;;;19.80;99.90;;;;;;5074029;28;19987;-73
2021/11/18 12:43:09;;;;;;;;;;;19.90;99.90;;;;;;5073902;28;19932;-70
2021/11/18 12:45:41;;;;;;;;;;;19.90;99.90;;;;;;5073878;28;20359;-73
2021/11/18 12:48:13;;;;;;;;;;;19.90;99.90;;;;;;5073601;28;19915;-73
2021/11/18 12:50:49;;;;;;;;;;;19.90;99.90;;;;;;5073768;28;19966;-73
2021/11/18 12:53:20;;;;;;;;;;;19.90;99.90;;;;;;5073607;28;19909;-73
2021/11/18 12:55:53;;;;;;;;;;;19.90;99.90;;;;;;5073237;28;19908;-71
2021/11/18 12:58:25;;;;;;;;;;;19.90;99.90;;;;;;5073664;28;19916;-72
2021/11/18 13:01:00;;;;;;;;;;;19.90;99.90;;;;;;5073279;28;19931;-72
2021/11/18 13:03:45;;;;;;;;;;;19.90;99.90;;;;;;5073727;28;19909;-72
2021/11/18 13:06:31;;;;;;;;;;;19.90;99.90;;;;;;5073443;28;19934;-71
2021/11/18 13:09:07;;;;;;;;;;;19.90;99.90;;;;;;5073617;28;19995;-72
2021/11/18 13:11:52;;;;;;;;;;;19.90;99.90;;;;;;5073200;28;19924;-70
2021/11/18 13:14:27;;;;;;;;;;;19.90;99.90;;;;;;5073298;28;20339;-70
2021/11/18 13:16:53;;;;;;;;;;;19.90;99.90;;;;;;5073158;28;19909;-72
2021/11/18 13:19:30;;;;;;;;;;;20.00;99.90;;;;;;5073108;28;19912;-71
2021/11/18 13:22:00;;;;;;;;;;;20.00;99.90;;;;;;5072863;28;19908;-72
2021/11/18 13:24:32;;;;;;;;;;;20.00;99.90;;;;;;5072896;28;20350;-73
2021/11/18 13:26:59;;;;;;;;;;;20.00;99.90;;;;;;5072820;28;19951;-71
2021/11/18 13:29:27;;;;;;;;;;;20.00;99.90;;;;;;5072679;28;19908;-73
2021/11/18 13:31:57;;;;;;;;;;;19.90;99.90;;;;;;5072437;28;19912;-71
2021/11/18 13:34:26;;;;;;;;;;;19.90;99.90;;;;;;5072799;28;19915;-72
2021/11/18 13:37:08;;;;;;;;;;;19.90;99.90;;;;;;5072619;28;19908;-72
2021/11/18 13:39:38;;;;;;;;;;;19.90;99.90;;;;;;5072634;28;20468;-72
2021/11/18 13:42:19;;;;;;;;;;;19.90;99.90;;;;;;5072635;28;19947;-68
2021/11/18 13:44:50;;;;;;;;;;;19.90;99.90;;;;;;5072431;28;19962;-68
2021/11/18 13:47:22;;;;;;;;;;;19.90;99.90;;;;;;5072724;28;19995;-73
2021/11/18 13:49:50;;;;;;;;;;;19.80;99.90;;;;;;5072320;28;20354;-71
2021/11/18 13:52:29;;;;;;;;;;;19.90;99.90;;;;;;5072575;28;19939;-70
2021/11/18 13:55:08;;;;;;;;;;;19.80;99.90;;;;;;5072585;28;19908;-71
2021/11/18 13:57:35;;;;;;;;;;;19.80;99.90;;;;;;5072457;28;19912;-71
2021/11/18 14:00:14;;;;;;;;;;;19.80;99.90;;;;;;5071980;28;19960;-72
2021/11/18 14:02:57;;;;;;;;;;;19.80;99.90;;;;;;5072416;28;19909;-71
2021/11/18 14:05:42;;;;;;;;;;;19.80;99.90;;;;;;5072370;28;19962;-71
2021/11/18 14:08:16;;;;;;;;;;;19.90;99.90;;;;;;5072268;28;20305;-70
2021/11/18 14:10:52;;;;;;;;;;;19.90;99.90;;;;;;5072373;28;20294;-72
2021/11/18 14:13:38;;;;;;;;;;;19.90;99.90;;;;;;5072348;28;20386;-67
2021/11/18 14:16:24;;;;;;;;;;;19.90;99.90;;;;;;5071797;28;19908;-71
2021/11/18 14:19:16;;;;;;;;;;;19.90;99.90;;;;;;5072237;28;19978;-73
2021/11/18 14:21:49;;;;;;;;;;;19.90;99.90;;;;;;5070400;28;19908;-70
2021/11/18 14:24:31;;;;;;;;;;;19.90;99.90;;;;;;5072010;28;20359;-70
2021/11/18 14:26:59;;;;;;;;;;;19.90;99.90;;;;;;5072150;28;19909;-71
2021/11/18 14:29:38;;;;;;;;;;;19.90;99.90;;;;;;5071955;28;19909;-72
2021/11/18 14:32:22;;;;;;;;;;;19.90;99.90;;;;;;5071694;28;19971;-72